sensor_id;sensor_type;location;lat;lon;timestamp;temperature;humidity
16485;DHT22;8353;47.856;12.344;2023-05-16T00:00:44;15.40;99.90
16485;DHT22;8353;47.856;12.344;2023-05-16T00:03:32;15.40;99.90
16485;DHT22;8353;47.856;12.344;2023-05-16T00:06:19;15.40;99.90
16485;DHT22;8353;47.856;12.344;2023-05-16T00:09:08;15.30;99.90
16485;DHT22;8353;47.856;12.344;2023-05-16T00:11:55;15.40;99.90
16485;DHT22;8353;47.856;12.344;2023-05-16T00:14:42;15.30;99.90
16485;DHT22;8353;47.856;12.344;2023-05-16T00:17:29;15.30;99.90
16485;DHT22;8353;47.856;12.344;2023-05-16T00:20:16;15.20;99.90
16485;DHT22;8353;47.856;12.344;2023-05-16T00:23:07;15.10;99.90
16485;DHT22;8353;47.856;12.344;2023-05-16T00:25:55;15.00;99.90
16485;DHT22;8353;47.856;12.344;2023-05-16T00:28:42;14.90;99.90
16485;DHT22;8353;47.856;12.344;2023-05-16T00:31:29;14.90;99.90
16485;DHT22;8353;47.856;12.344;2023-05-16T00:34:16;14.90;99.90
16485;DHT22;8353;47.856;12.344;2023-05-16T00:37:02;14.90;99.90
16485;DHT22;8353;47.856;12.344;2023-05-16T00:39:49;15.00;99.90
16485;DHT22;8353;47.856;12.344;2023-05-16T00:42:38;15.20;99.90
16485;DHT22;8353;47.856;12.344;2023-05-16T00:45:25;15.30;99.90
16485;DHT22;8353;47.856;12.344;2023-05-16T00:48:13;15.30;99.90
16485;DHT22;8353;47.856;12.344;2023-05-16T00:51:00;15.30;99.90
16485;DHT22;8353;47.856;12.344;2023-05-16T00:53:48;15.30;99.90
16485;DHT22;8353;47.856;12.344;2023-05-16T00:56:34;15.30;99.90
16485;DHT22;8353;47.856;12.344;2023-05-16T00:59:23;15.20;99.90
16485;DHT22;8353;47.856;12.344;2023-05-16T01:02:10;15.00;99.90
16485;DHT22;8353;47.856;12.344;2023-05-16T01:04:57;15.00;99.90
16485;DHT22;8353;47.856;12.344;2023-05-16T01:07:44;15.00;99.90
16485;DHT22;8353;47.856;12.344;2023-05-16T01:10:35;14.90;99.90
16485;DHT22;8353;47.856;12.344;2023-05-16T01:13:30;15.00;99.90
16485;DHT22;8353;47.856;12.344;2023-05-16T01:16:24;15.00;99.90
16485;DHT22;8353;47.856;12.344;2023-05-16T01:19:18;15.00;99.90
16485;DHT22;8353;47.856;12.344;2023-05-16T01:22:24;15.00;99.90
16485;DHT22;8353;47.856;12.344;2023-05-16T01:25:21;15.10;99.90
16485;DHT22;8353;47.856;12.344;2023-05-16T01:28:12;15.00;99.90
16485;DHT22;8353;47.856;12.344;2023-05-16T01:31:00;15.00;99.90
16485;DHT22;8353;47.856;12.344;2023-05-16T01:33:48;15.10;99.90
16485;DHT22;8353;47.856;12.344;2023-05-16T01:36:40;15.10;99.90
16485;DHT22;8353;47.856;12.344;2023-05-16T01:39:34;15.20;99.90
16485;DHT22;8353;47.856;12.344;2023-05-16T01:42:26;15.20;99.90
16485;DHT22;8353;47.856;12.344;2023-05-16T01:45:20;15.20;99.90
16485;DHT22;8353;47.856;12.344;2023-05-16T01:48:12;15.10;99.90
16485;DHT22;8353;47.856;12.344;2023-05-16T01:51:02;15.10;99.90
16485;DHT22;8353;47.856;12.344;2023-05-16T01:53:51;15.00;99.90
16485;DHT22;8353;47.856;12.344;2023-05-16T01:56:44;14.90;99.90
16485;DHT22;8353;47.856;12.344;2023-05-16T01:59:37;14.70;99.90
16485;DHT22;8353;47.856;12.344;2023-05-16T02:02:26;14.60;99.90
16485;DHT22;8353;47.856;12.344;2023-05-16T02:05:13;14.70;99.90
16485;DHT22;8353;47.856;12.344;2023-05-16T02:08:00;14.70;99.90
16485;DHT22;8353;47.856;12.344;2023-05-16T02:10:47;14.70;99.90
16485;DHT22;8353;47.856;12.344;2023-05-16T02:13:33;14.70;99.90
16485;DHT22;8353;47.856;12.344;2023-05-16T02:16:20;14.80;99.90
16485;DHT22;8353;47.856;12.344;2023-05-16T02:19:08;14.80;99.90
16485;DHT22;8353;47.856;12.344;2023-05-16T02:21:55;14.80;99.90
16485;DHT22;8353;47.856;12.344;2023-05-16T02:24:42;14.90;99.90
16485;DHT22;8353;47.856;12.344;2023-05-16T02:27:29;14.80;99.90
16485;DHT22;8353;47.856;12.344;2023-05-16T02:30:16;14.80;99.90
16485;DHT22;8353;47.856;12.344;2023-05-16T02:33:03;14.80;99.90
16485;DHT22;8353;47.856;12.344;2023-05-16T02:35:54;14.80;99.90
16485;DHT22;8353;47.856;12.344;2023-05-16T02:38:41;14.80;99.90
16485;DHT22;8353;47.856;12.344;2023-05-16T02:41:27;14.60;99.90
16485;DHT22;8353;47.856;12.344;2023-05-16T02:44:14;14.50;99.90
16485;DHT22;8353;47.856;12.344;2023-05-16T02:47:01;14.60;99.90
16485;DHT22;8353;47.856;12.344;2023-05-16T02:49:48;14.50;99.90
16485;DHT22;8353;47.856;12.344;2023-05-16T02:52:38;14.50;99.90
16485;DHT22;8353;47.856;12.344;2023-05-16T02:55:25;14.50;99.90
16485;DHT22;8353;47.856;12.344;2023-05-16T02:58:12;14.50;99.90
16485;DHT22;8353;47.856;12.344;2023-05-16T03:00:58;14.60;99.90
16485;DHT22;8353;47.856;12.344;2023-05-16T03:03:45;14.40;99.90
16485;DHT22;8353;47.856;12.344;2023-05-16T03:06:32;14.60;99.90
16485;DHT22;8353;47.856;12.344;2023-05-16T03:09:20;14.70;99.90
16485;DHT22;8353;47.856;12.344;2023-05-16T03:12:07;14.60;99.90
16485;DHT22;8353;47.856;12.344;2023-05-16T03:14:54;14.70;99.90
16485;DHT22;8353;47.856;12.344;2023-05-16T03:17:41;14.60;99.90
16485;DHT22;8353;47.856;12.344;2023-05-16T03:20:27;14.60;99.90
16485;DHT22;8353;47.856;12.344;2023-05-16T03:23:14;14.70;99.90
16485;DHT22;8353;47.856;12.344;2023-05-16T03:26:02;14.60;99.90
16485;DHT22;8353;47.856;12.344;2023-05-16T03:28:49;14.60;99.90
16485;DHT22;8353;47.856;12.344;2023-05-16T03:31:36;14.50;99.90
16485;DHT22;8353;47.856;12.344;2023-05-16T03:34:23;14.60;99.90
16485;DHT22;8353;47.856;12.344;2023-05-16T03:37:10;14.60;99.90
16485;DHT22;8353;47.856;12.344;2023-05-16T03:39:59;14.60;99.90
16485;DHT22;8353;47.856;12.344;2023-05-16T03:42:47;14.40;99.90
16485;DHT22;8353;47.856;12.344;2023-05-16T03:45:34;14.30;99.90
16485;DHT22;8353;47.856;12.344;2023-05-16T03:48:24;14.20;99.90
16485;DHT22;8353;47.856;12.344;2023-05-16T03:51:10;14.20;99.90
16485;DHT22;8353;47.856;12.344;2023-05-16T03:53:57;13.90;99.90
16485;DHT22;8353;47.856;12.344;2023-05-16T03:56:44;13.80;99.90
16485;DHT22;8353;47.856;12.344;2023-05-16T03:59:32;13.80;99.90
16485;DHT22;8353;47.856;12.344;2023-05-16T04:02:20;13.90;99.90
16485;DHT22;8353;47.856;12.344;2023-05-16T04:05:08;13.90;99.90
16485;DHT22;8353;47.856;12.344;2023-05-16T04:07:55;13.80;99.90
16485;DHT22;8353;47.856;12.344;2023-05-16T04:10:42;13.80;99.90
16485;DHT22;8353;47.856;12.344;2023-05-16T04:13:28;13.70;99.90
16485;DHT22;8353;47.856;12.344;2023-05-16T04:16:17;13.80;99.90
16485;DHT22;8353;47.856;12.344;2023-05-16T04:19:03;13.90;99.90
16485;DHT22;8353;47.856;12.344;2023-05-16T04:21:50;13.80;99.90
16485;DHT22;8353;47.856;12.344;2023-05-16T04:24:37;13.80;99.90
16485;DHT22;8353;47.856;12.344;2023-05-16T04:27:24;13.80;99.90
16485;DHT22;8353;47.856;12.344;2023-05-16T04:30:11;13.80;99.90
16485;DHT22;8353;47.856;12.344;2023-05-16T04:33:00;13.90;99.90
16485;DHT22;8353;47.856;12.344;2023-05-16T04:35:47;14.00;99.90
16485;DHT22;8353;47.856;12.344;2023-05-16T04:38:34;14.10;99.90
16485;DHT22;8353;47.856;12.344;2023-05-16T04:41:21;14.10;99.90
16485;DHT22;8353;47.856;12.344;2023-05-16T04:44:08;14.20;99.90
16485;DHT22;8353;47.856;12.344;2023-05-16T04:46:55;14.20;99.90
16485;DHT22;8353;47.856;12.344;2023-05-16T04:49:43;14.20;99.90
16485;DHT22;8353;47.856;12.344;2023-05-16T04:52:30;14.20;99.90
16485;DHT22;8353;47.856;12.344;2023-05-16T04:55:17;14.20;99.90
16485;DHT22;8353;47.856;12.344;2023-05-16T04:58:05;14.20;99.90
16485;DHT22;8353;47.856;12.344;2023-05-16T05:00:53;14.20;99.90
16485;DHT22;8353;47.856;12.344;2023-05-16T05:03:41;14.30;99.90
16485;DHT22;8353;47.856;12.344;2023-05-16T05:06:31;14.40;99.90
16485;DHT22;8353;47.856;12.344;2023-05-16T05:09:18;14.40;99.90
16485;DHT22;8353;47.856;12.344;2023-05-16T05:12:05;14.40;99.90
16485;DHT22;8353;47.856;12.344;2023-05-16T05:14:52;14.40;99.90
16485;DHT22;8353;47.856;12.344;2023-05-16T05:17:39;14.50;99.90
16485;DHT22;8353;47.856;12.344;2023-05-16T05:20:26;14.50;99.90
16485;DHT22;8353;47.856;12.344;2023-05-16T05:23:14;14.60;99.90
16485;DHT22;8353;47.856;12.344;2023-05-16T05:26:01;14.70;99.90
16485;DHT22;8353;47.856;12.344;2023-05-16T05:28:48;14.80;99.90
16485;DHT22;8353;47.856;12.344;2023-05-16T05:31:35;14.80;99.90
16485;DHT22;8353;47.856;12.344;2023-05-16T05:34:21;14.80;99.90
16485;DHT22;8353;47.856;12.344;2023-05-16T05:37:11;14.90;99.90
16485;DHT22;8353;47.856;12.344;2023-05-16T05:39:59;14.90;99.90
16485;DHT22;8353;47.856;12.344;2023-05-16T05:42:46;14.90;99.90
16485;DHT22;8353;47.856;12.344;2023-05-16T05:45:33;15.00;99.90
16485;DHT22;8353;47.856;12.344;2023-05-16T05:48:20;14.90;99.90
16485;DHT22;8353;47.856;12.344;2023-05-16T05:51:07;14.80;99.90
16485;DHT22;8353;47.856;12.344;2023-05-16T05:53:54;14.80;99.90
16485;DHT22;8353;47.856;12.344;2023-05-16T05:56:42;14.90;99.90
16485;DHT22;8353;47.856;12.344;2023-05-16T05:59:29;14.90;99.90
16485;DHT22;8353;47.856;12.344;2023-05-16T06:02:15;15.00;99.90
16485;DHT22;8353;47.856;12.344;2023-05-16T06:05:03;15.00;99.90
16485;DHT22;8353;47.856;12.344;2023-05-16T06:07:51;15.10;99.90
16485;DHT22;8353;47.856;12.344;2023-05-16T06:10:38;15.00;99.90
16485;DHT22;8353;47.856;12.344;2023-05-16T06:13:26;15.00;99.90
16485;DHT22;8353;47.856;12.344;2023-05-16T06:16:13;14.80;99.90
16485;DHT22;8353;47.856;12.344;2023-05-16T06:19:01;14.80;99.90
16485;DHT22;8353;47.856;12.344;2023-05-16T06:21:47;14.80;99.90
16485;DHT22;8353;47.856;12.344;2023-05-16T06:24:34;14.90;99.90
16485;DHT22;8353;47.856;12.344;2023-05-16T06:27:21;14.80;99.90
16485;DHT22;8353;47.856;12.344;2023-05-16T06:30:10;14.80;99.90
16485;DHT22;8353;47.856;12.344;2023-05-16T06:32:56;14.80;99.90
16485;DHT22;8353;47.856;12.344;2023-05-16T06:35:43;14.90;99.90
16485;DHT22;8353;47.856;12.344;2023-05-16T06:38:30;15.00;99.90
16485;DHT22;8353;47.856;12.344;2023-05-16T06:41:17;15.10;99.90
16485;DHT22;8353;47.856;12.344;2023-05-16T06:44:04;15.30;99.90
16485;DHT22;8353;47.856;12.344;2023-05-16T06:46:52;15.40;99.90
16485;DHT22;8353;47.856;12.344;2023-05-16T06:49:39;15.40;99.90
16485;DHT22;8353;47.856;12.344;2023-05-16T06:52:27;15.50;99.90
16485;DHT22;8353;47.856;12.344;2023-05-16T06:55:14;15.50;99.90
16485;DHT22;8353;47.856;12.344;2023-05-16T06:58:01;15.50;99.90
16485;DHT22;8353;47.856;12.344;2023-05-16T07:00:49;15.60;99.90
16485;DHT22;8353;47.856;12.344;2023-05-16T07:03:37;15.60;99.90
16485;DHT22;8353;47.856;12.344;2023-05-16T07:06:26;15.70;99.90
16485;DHT22;8353;47.856;12.344;2023-05-16T07:09:12;15.80;99.90
16485;DHT22;8353;47.856;12.344;2023-05-16T07:11:59;15.80;99.90
16485;DHT22;8353;47.856;12.344;2023-05-16T07:14:46;15.90;99.90
16485;DHT22;8353;47.856;12.344;2023-05-16T07:17:33;16.10;99.90
16485;DHT22;8353;47.856;12.344;2023-05-16T07:20:21;16.20;99.90
16485;DHT22;8353;47.856;12.344;2023-05-16T07:23:13;16.20;99.90
16485;DHT22;8353;47.856;12.344;2023-05-16T07:26:00;16.30;99.90
16485;DHT22;8353;47.856;12.344;2023-05-16T07:28:48;16.20;99.90
16485;DHT22;8353;47.856;12.344;2023-05-16T07:31:35;16.10;99.90
16485;DHT22;8353;47.856;12.344;2023-05-16T07:34:27;16.00;99.90
16485;DHT22;8353;47.856;12.344;2023-05-16T07:37:15;16.10;99.90
16485;DHT22;8353;47.856;12.344;2023-05-16T07:40:03;16.20;99.90
16485;DHT22;8353;47.856;12.344;2023-05-16T07:42:50;16.30;99.90
16485;DHT22;8353;47.856;12.344;2023-05-16T07:45:39;16.40;99.90
16485;DHT22;8353;47.856;12.344;2023-05-16T07:48:26;16.50;99.90
16485;DHT22;8353;47.856;12.344;2023-05-16T07:51:13;16.50;99.90
16485;DHT22;8353;47.856;12.344;2023-05-16T07:54:04;16.70;99.90
16485;DHT22;8353;47.856;12.344;2023-05-16T07:56:51;16.70;99.90
16485;DHT22;8353;47.856;12.344;2023-05-16T07:59:38;16.60;99.90
16485;DHT22;8353;47.856;12.344;2023-05-16T08:02:31;16.60;99.90
16485;DHT22;8353;47.856;12.344;2023-05-16T08:05:18;16.70;99.90
16485;DHT22;8353;47.856;12.344;2023-05-16T08:08:08;16.70;99.90
16485;DHT22;8353;47.856;12.344;2023-05-16T08:10:56;16.60;99.90
16485;DHT22;8353;47.856;12.344;2023-05-16T08:13:43;16.60;99.90
16485;DHT22;8353;47.856;12.344;2023-05-16T08:16:30;16.70;99.90
16485;DHT22;8353;47.856;12.344;2023-05-16T08:19:16;16.80;99.90
16485;DHT22;8353;47.856;12.344;2023-05-16T08:22:05;16.80;99.90
16485;DHT22;8353;47.856;12.344;2023-05-16T08:24:52;16.90;99.90
16485;DHT22;8353;47.856;12.344;2023-05-16T08:27:44;17.00;99.90
16485;DHT22;8353;47.856;12.344;2023-05-16T08:30:31;17.10;99.90
16485;DHT22;8353;47.856;12.344;2023-05-16T08:33:18;17.00;99.90
16485;DHT22;8353;47.856;12.344;2023-05-16T08:36:06;16.90;99.90
16485;DHT22;8353;47.856;12.344;2023-05-16T08:38:53;16.90;99.90
16485;DHT22;8353;47.856;12.344;2023-05-16T08:41:40;17.00;99.90
16485;DHT22;8353;47.856;12.344;2023-05-16T08:44:33;16.90;99.90
16485;DHT22;8353;47.856;12.344;2023-05-16T08:47:22;16.90;99.90
16485;DHT22;8353;47.856;12.344;2023-05-16T08:50:10;16.90;99.90
16485;DHT22;8353;47.856;12.344;2023-05-16T08:53:02;16.70;99.90
16485;DHT22;8353;47.856;12.344;2023-05-16T08:55:51;16.80;99.90
16485;DHT22;8353;47.856;12.344;2023-05-16T08:58:39;16.90;99.90
16485;DHT22;8353;47.856;12.344;2023-05-16T09:01:29;16.90;99.90
16485;DHT22;8353;47.856;12.344;2023-05-16T09:04:22;16.90;99.90
16485;DHT22;8353;47.856;12.344;2023-05-16T09:07:09;16.90;99.90
16485;DHT22;8353;47.856;12.344;2023-05-16T09:09:57;17.00;99.90
16485;DHT22;8353;47.856;12.344;2023-05-16T09:12:46;17.10;99.90
16485;DHT22;8353;47.856;12.344;2023-05-16T09:15:33;17.10;99.90
16485;DHT22;8353;47.856;12.344;2023-05-16T09:18:21;17.10;99.90
16485;DHT22;8353;47.856;12.344;2023-05-16T09:21:09;17.00;99.90
16485;DHT22;8353;47.856;12.344;2023-05-16T09:24:02;17.00;99.90
16485;DHT22;8353;47.856;12.344;2023-05-16T09:26:51;17.10;99.90
16485;DHT22;8353;47.856;12.344;2023-05-16T09:29:41;17.20;99.90
16485;DHT22;8353;47.856;12.344;2023-05-16T09:32:30;17.20;99.90
16485;DHT22;8353;47.856;12.344;2023-05-16T09:35:19;17.10;99.90
16485;DHT22;8353;47.856;12.344;2023-05-16T09:38:13;17.10;99.90
16485;DHT22;8353;47.856;12.344;2023-05-16T09:41:01;17.10;99.90
16485;DHT22;8353;47.856;12.344;2023-05-16T09:43:48;17.10;99.90
16485;DHT22;8353;47.856;12.344;2023-05-16T09:46:35;17.20;99.90
16485;DHT22;8353;47.856;12.344;2023-05-16T09:49:22;17.20;99.90
16485;DHT22;8353;47.856;12.344;2023-05-16T09:52:11;17.20;99.90
16485;DHT22;8353;47.856;12.344;2023-05-16T09:54:58;17.00;99.90
16485;DHT22;8353;47.856;12.344;2023-05-16T09:57:49;16.90;99.90
16485;DHT22;8353;47.856;12.344;2023-05-16T10:00:36;16.90;99.90
16485;DHT22;8353;47.856;12.344;2023-05-16T10:03:24;17.00;99.90
16485;DHT22;8353;47.856;12.344;2023-05-16T10:06:12;17.00;99.90
16485;DHT22;8353;47.856;12.344;2023-05-16T10:09:01;17.00;99.90
16485;DHT22;8353;47.856;12.344;2023-05-16T10:11:51;17.00;99.90
16485;DHT22;8353;47.856;12.344;2023-05-16T10:14:38;16.90;99.90
16485;DHT22;8353;47.856;12.344;2023-05-16T10:17:27;16.90;99.90
16485;DHT22;8353;47.856;12.344;2023-05-16T10:20:16;17.00;99.90
16485;DHT22;8353;47.856;12.344;2023-05-16T10:23:04;17.00;99.90
16485;DHT22;8353;47.856;12.344;2023-05-16T10:25:53;16.90;99.90
16485;DHT22;8353;47.856;12.344;2023-05-16T10:28:41;16.90;99.90
16485;DHT22;8353;47.856;12.344;2023-05-16T10:31:28;17.00;99.90
16485;DHT22;8353;47.856;12.344;2023-05-16T10:34:15;17.00;99.90
16485;DHT22;8353;47.856;12.344;2023-05-16T10:37:03;16.90;99.90
16485;DHT22;8353;47.856;12.344;2023-05-16T10:39:51;16.80;99.90
16485;DHT22;8353;47.856;12.344;2023-05-16T10:42:43;16.80;99.90
16485;DHT22;8353;47.856;12.344;2023-05-16T10:45:39;16.80;99.90
16485;DHT22;8353;47.856;12.344;2023-05-16T10:48:28;16.70;99.90
16485;DHT22;8353;47.856;12.344;2023-05-16T10:51:34;16.70;99.90
16485;DHT22;8353;47.856;12.344;2023-05-16T10:54:33;16.70;99.90
16485;DHT22;8353;47.856;12.344;2023-05-16T10:57:22;16.60;99.90
16485;DHT22;8353;47.856;12.344;2023-05-16T11:00:21;16.70;99.90
16485;DHT22;8353;47.856;12.344;2023-05-16T11:03:21;16.50;99.90
16485;DHT22;8353;47.856;12.344;2023-05-16T11:06:12;16.50;99.90
16485;DHT22;8353;47.856;12.344;2023-05-16T11:09:07;16.50;99.90
16485;DHT22;8353;47.856;12.344;2023-05-16T11:12:05;16.40;99.90
16485;DHT22;8353;47.856;12.344;2023-05-16T11:14:55;16.30;99.90
16485;DHT22;8353;47.856;12.344;2023-05-16T11:17:45;16.40;99.90
16485;DHT22;8353;47.856;12.344;2023-05-16T11:20:33;16.30;99.90
16485;DHT22;8353;47.856;12.344;2023-05-16T11:23:22;16.10;99.90
16485;DHT22;8353;47.856;12.344;2023-05-16T11:26:11;16.00;99.90
16485;DHT22;8353;47.856;12.344;2023-05-16T11:28:58;16.10;99.90
16485;DHT22;8353;47.856;12.344;2023-05-16T11:31:47;16.10;99.90
16485;DHT22;8353;47.856;12.344;2023-05-16T11:34:35;16.10;99.90
16485;DHT22;8353;47.856;12.344;2023-05-16T11:37:24;16.10;99.90
16485;DHT22;8353;47.856;12.344;2023-05-16T11:40:12;16.00;99.90
16485;DHT22;8353;47.856;12.344;2023-05-16T11:43:00;16.00;99.90
16485;DHT22;8353;47.856;12.344;2023-05-16T11:45:53;16.00;99.90
16485;DHT22;8353;47.856;12.344;2023-05-16T11:48:40;16.10;99.90
16485;DHT22;8353;47.856;12.344;2023-05-16T11:51:28;16.10;99.90
16485;DHT22;8353;47.856;12.344;2023-05-16T11:54:17;16.20;99.90
16485;DHT22;8353;47.856;12.344;2023-05-16T11:57:05;16.10;99.90
16485;DHT22;8353;47.856;12.344;2023-05-16T11:59:52;16.20;99.90
16485;DHT22;8353;47.856;12.344;2023-05-16T12:02:39;16.30;99.90
16485;DHT22;8353;47.856;12.344;2023-05-16T12:05:26;16.10;99.90
16485;DHT22;8353;47.856;12.344;2023-05-16T12:08:16;16.20;99.90
16485;DHT22;8353;47.856;12.344;2023-05-16T12:11:05;16.20;99.90
16485;DHT22;8353;47.856;12.344;2023-05-16T12:13:54;16.20;99.90
16485;DHT22;8353;47.856;12.344;2023-05-16T12:16:41;16.20;99.90
16485;DHT22;8353;47.856;12.344;2023-05-16T12:19:30;16.20;99.90
16485;DHT22;8353;47.856;12.344;2023-05-16T12:22:19;16.10;99.90
16485;DHT22;8353;47.856;12.344;2023-05-16T12:25:24;16.30;99.90
16485;DHT22;8353;47.856;12.344;2023-05-16T12:28:12;16.40;99.90
16485;DHT22;8353;47.856;12.344;2023-05-16T12:30:59;16.50;99.90
16485;DHT22;8353;47.856;12.344;2023-05-16T12:33:46;16.50;99.90
16485;DHT22;8353;47.856;12.344;2023-05-16T12:36:33;16.40;99.90
16485;DHT22;8353;47.856;12.344;2023-05-16T12:39:21;16.50;99.90
16485;DHT22;8353;47.856;12.344;2023-05-16T12:42:10;16.60;99.90
16485;DHT22;8353;47.856;12.344;2023-05-16T12:44:58;16.60;99.90
16485;DHT22;8353;47.856;12.344;2023-05-16T12:47:50;16.50;99.90
16485;DHT22;8353;47.856;12.344;2023-05-16T12:50:41;16.60;99.90
16485;DHT22;8353;47.856;12.344;2023-05-16T12:53:40;16.60;99.90
16485;DHT22;8353;47.856;12.344;2023-05-16T12:56:27;16.50;99.90
16485;DHT22;8353;47.856;12.344;2023-05-16T12:59:15;16.50;99.90
16485;DHT22;8353;47.856;12.344;2023-05-16T13:02:04;16.60;99.90
16485;DHT22;8353;47.856;12.344;2023-05-16T13:04:51;16.70;99.90
16485;DHT22;8353;47.856;12.344;2023-05-16T13:07:38;16.50;99.90
16485;DHT22;8353;47.856;12.344;2023-05-16T13:10:25;16.20;99.90
16485;DHT22;8353;47.856;12.344;2023-05-16T13:13:12;16.10;99.90
16485;DHT22;8353;47.856;12.344;2023-05-16T13:16:01;16.10;99.90
16485;DHT22;8353;47.856;12.344;2023-05-16T13:18:50;16.10;99.90
16485;DHT22;8353;47.856;12.344;2023-05-16T13:21:37;15.80;99.90
16485;DHT22;8353;47.856;12.344;2023-05-16T13:24:24;15.80;99.90
16485;DHT22;8353;47.856;12.344;2023-05-16T13:27:14;15.70;99.90
16485;DHT22;8353;47.856;12.344;2023-05-16T13:30:04;15.90;99.90
16485;DHT22;8353;47.856;12.344;2023-05-16T13:32:55;15.90;99.90
16485;DHT22;8353;47.856;12.344;2023-05-16T13:35:43;15.90;99.90
16485;DHT22;8353;47.856;12.344;2023-05-16T13:38:30;15.60;99.90
16485;DHT22;8353;47.856;12.344;2023-05-16T13:41:16;15.60;99.90
16485;DHT22;8353;47.856;12.344;2023-05-16T13:44:05;15.50;99.90
16485;DHT22;8353;47.856;12.344;2023-05-16T13:46:52;15.50;99.90
16485;DHT22;8353;47.856;12.344;2023-05-16T13:49:40;15.40;99.90
16485;DHT22;8353;47.856;12.344;2023-05-16T13:52:27;15.20;99.90
16485;DHT22;8353;47.856;12.344;2023-05-16T13:55:15;15.00;99.90
16485;DHT22;8353;47.856;12.344;2023-05-16T13:58:03;14.90;99.90
16485;DHT22;8353;47.856;12.344;2023-05-16T14:00:52;14.70;99.90
16485;DHT22;8353;47.856;12.344;2023-05-16T14:03:38;14.90;99.90
16485;DHT22;8353;47.856;12.344;2023-05-16T14:06:27;14.90;99.90
16485;DHT22;8353;47.856;12.344;2023-05-16T14:09:14;14.80;99.90
16485;DHT22;8353;47.856;12.344;2023-05-16T14:12:01;14.90;99.90
16485;DHT22;8353;47.856;12.344;2023-05-16T14:14:48;14.90;99.90
16485;DHT22;8353;47.856;12.344;2023-05-16T14:17:35;14.90;99.90
16485;DHT22;8353;47.856;12.344;2023-05-16T14:20:22;15.10;99.90
16485;DHT22;8353;47.856;12.344;2023-05-16T14:23:10;15.00;99.90
16485;DHT22;8353;47.856;12.344;2023-05-16T14:25:57;15.10;99.90
16485;DHT22;8353;47.856;12.344;2023-05-16T14:28:43;15.10;99.90
16485;DHT22;8353;47.856;12.344;2023-05-16T14:31:30;15.30;99.90
16485;DHT22;8353;47.856;12.344;2023-05-16T14:34:17;15.40;99.90
16485;DHT22;8353;47.856;12.344;2023-05-16T14:37:04;15.40;99.90
16485;DHT22;8353;47.856;12.344;2023-05-16T14:39:52;15.30;99.90
16485;DHT22;8353;47.856;12.344;2023-05-16T14:42:39;15.20;99.90
16485;DHT22;8353;47.856;12.344;2023-05-16T14:45:26;15.20;99.90
16485;DHT22;8353;47.856;12.344;2023-05-16T14:48:15;15.10;99.90
16485;DHT22;8353;47.856;12.344;2023-05-16T14:51:02;15.10;99.90
16485;DHT22;8353;47.856;12.344;2023-05-16T14:53:51;15.00;99.90
16485;DHT22;8353;47.856;12.344;2023-05-16T14:56:39;14.90;99.90
16485;DHT22;8353;47.856;12.344;2023-05-16T14:59:27;14.90;99.90
16485;DHT22;8353;47.856;12.344;2023-05-16T15:02:14;15.00;99.90
16485;DHT22;8353;47.856;12.344;2023-05-16T15:05:01;15.00;99.90
16485;DHT22;8353;47.856;12.344;2023-05-16T15:07:49;15.00;99.90
16485;DHT22;8353;47.856;12.344;2023-05-16T15:10:36;15.00;99.90
16485;DHT22;8353;47.856;12.344;2023-05-16T15:13:24;15.10;99.90
16485;DHT22;8353;47.856;12.344;2023-05-16T15:16:11;15.20;99.90
16485;DHT22;8353;47.856;12.344;2023-05-16T15:18:58;15.30;99.90
16485;DHT22;8353;47.856;12.344;2023-05-16T15:21:45;15.30;99.90
16485;DHT22;8353;47.856;12.344;2023-05-16T15:24:31;15.30;99.90
16485;DHT22;8353;47.856;12.344;2023-05-16T15:27:18;15.40;99.90
16485;DHT22;8353;47.856;12.344;2023-05-16T15:30:08;15.40;99.90
16485;DHT22;8353;47.856;12.344;2023-05-16T15:32:55;15.50;99.90
16485;DHT22;8353;47.856;12.344;2023-05-16T15:35:42;15.50;99.90
16485;DHT22;8353;47.856;12.344;2023-05-16T15:38:29;15.40;99.90
16485;DHT22;8353;47.856;12.344;2023-05-16T15:41:15;15.40;99.90
16485;DHT22;8353;47.856;12.344;2023-05-16T15:44:03;15.30;99.90
16485;DHT22;8353;47.856;12.344;2023-05-16T15:46:51;15.30;99.90
16485;DHT22;8353;47.856;12.344;2023-05-16T15:49:38;15.20;99.90
16485;DHT22;8353;47.856;12.344;2023-05-16T15:52:26;15.30;99.90
16485;DHT22;8353;47.856;12.344;2023-05-16T15:55:13;15.20;99.90
16485;DHT22;8353;47.856;12.344;2023-05-16T15:57:59;15.10;99.90
16485;DHT22;8353;47.856;12.344;2023-05-16T16:00:46;15.20;99.90
16485;DHT22;8353;47.856;12.344;2023-05-16T16:03:34;15.20;99.90
16485;DHT22;8353;47.856;12.344;2023-05-16T16:06:21;15.20;99.90
16485;DHT22;8353;47.856;12.344;2023-05-16T16:09:08;15.20;99.90
16485;DHT22;8353;47.856;12.344;2023-05-16T16:11:55;15.20;99.90
16485;DHT22;8353;47.856;12.344;2023-05-16T16:14:42;15.20;99.90
16485;DHT22;8353;47.856;12.344;2023-05-16T16:17:29;15.30;99.90
16485;DHT22;8353;47.856;12.344;2023-05-16T16:20:42;15.20;99.90
16485;DHT22;8353;47.856;12.344;2023-05-16T16:23:30;15.00;99.90
16485;DHT22;8353;47.856;12.344;2023-05-16T16:26:17;14.90;99.90
16485;DHT22;8353;47.856;12.344;2023-05-16T16:29:04;15.00;99.90
16485;DHT22;8353;47.856;12.344;2023-05-16T16:31:51;15.00;99.90
16485;DHT22;8353;47.856;12.344;2023-05-16T16:34:38;15.10;99.90
16485;DHT22;8353;47.856;12.344;2023-05-16T16:37:26;15.00;99.90
16485;DHT22;8353;47.856;12.344;2023-05-16T16:40:13;14.90;99.90
16485;DHT22;8353;47.856;12.344;2023-05-16T16:43:00;15.00;99.90
16485;DHT22;8353;47.856;12.344;2023-05-16T16:45:48;14.90;99.90
16485;DHT22;8353;47.856;12.344;2023-05-16T16:48:35;14.80;99.90
16485;DHT22;8353;47.856;12.344;2023-05-16T16:51:22;14.90;99.90
16485;DHT22;8353;47.856;12.344;2023-05-16T16:54:10;14.90;99.90
16485;DHT22;8353;47.856;12.344;2023-05-16T16:56:57;14.90;99.90
16485;DHT22;8353;47.856;12.344;2023-05-16T16:59:43;14.90;99.90
16485;DHT22;8353;47.856;12.344;2023-05-16T17:02:33;15.00;99.90
16485;DHT22;8353;47.856;12.344;2023-05-16T17:05:19;14.90;99.90
16485;DHT22;8353;47.856;12.344;2023-05-16T17:08:06;14.90;99.90
16485;DHT22;8353;47.856;12.344;2023-05-16T17:10:54;14.70;99.90
16485;DHT22;8353;47.856;12.344;2023-05-16T17:13:43;14.70;99.90
16485;DHT22;8353;47.856;12.344;2023-05-16T17:16:30;14.70;99.90
16485;DHT22;8353;47.856;12.344;2023-05-16T17:19:18;14.80;99.90
16485;DHT22;8353;47.856;12.344;2023-05-16T17:22:05;14.70;99.90
16485;DHT22;8353;47.856;12.344;2023-05-16T17:24:53;14.80;99.90
16485;DHT22;8353;47.856;12.344;2023-05-16T17:27:43;14.80;99.90
16485;DHT22;8353;47.856;12.344;2023-05-16T17:30:29;14.70;99.90
16485;DHT22;8353;47.856;12.344;2023-05-16T17:33:17;14.70;99.90
16485;DHT22;8353;47.856;12.344;2023-05-16T17:36:05;14.70;99.90
16485;DHT22;8353;47.856;12.344;2023-05-16T17:38:52;14.70;99.90
16485;DHT22;8353;47.856;12.344;2023-05-16T17:41:40;14.80;99.90